sensor_id;sensor_type;location;lat;lon;timestamp;temperature;humidity
3194;DHT22;1608;50.860;13.466;2022-07-29T00:02:23;15.40;81.40
3194;DHT22;1608;50.860;13.466;2022-07-29T00:04:51;15.40;81.50
3194;DHT22;1608;50.860;13.466;2022-07-29T00:07:18;15.30;82.00
3194;DHT22;1608;50.860;13.466;2022-07-29T00:09:45;15.20;82.60
3194;DHT22;1608;50.860;13.466;2022-07-29T00:12:11;15.10;83.20
3194;DHT22;1608;50.860;13.466;2022-07-29T00:14:38;15.10;83.40
3194;DHT22;1608;50.860;13.466;2022-07-29T00:17:05;15.00;84.20
3194;DHT22;1608;50.860;13.466;2022-07-29T00:19:32;15.00;84.30
3194;DHT22;1608;50.860;13.466;2022-07-29T00:22:00;15.20;84.30
3194;DHT22;1608;50.860;13.466;2022-07-29T00:24:27;15.10;84.60
3194;DHT22;1608;50.860;13.466;2022-07-29T00:26:54;15.20;84.40
3194;DHT22;1608;50.860;13.466;2022-07-29T00:29:21;15.20;84.20
3194;DHT22;1608;50.860;13.466;2022-07-29T00:31:47;15.40;84.00
3194;DHT22;1608;50.860;13.466;2022-07-29T00:34:14;15.30;83.90
3194;DHT22;1608;50.860;13.466;2022-07-29T00:36:55;15.30;83.90
3194;DHT22;1608;50.860;13.466;2022-07-29T00:39:23;15.30;84.20
3194;DHT22;1608;50.860;13.466;2022-07-29T00:41:50;15.20;84.70
3194;DHT22;1608;50.860;13.466;2022-07-29T00:44:17;15.30;85.00
3194;DHT22;1608;50.860;13.466;2022-07-29T00:46:44;15.30;84.90
3194;DHT22;1608;50.860;13.466;2022-07-29T00:49:10;15.40;84.90
3194;DHT22;1608;50.860;13.466;2022-07-29T00:51:37;15.40;84.90
3194;DHT22;1608;50.860;13.466;2022-07-29T00:54:05;15.40;85.10
3194;DHT22;1608;50.860;13.466;2022-07-29T00:56:33;15.40;85.20
3194;DHT22;1608;50.860;13.466;2022-07-29T00:59:00;15.40;85.20
3194;DHT22;1608;50.860;13.466;2022-07-29T01:01:27;15.40;85.20
3194;DHT22;1608;50.860;13.466;2022-07-29T01:03:54;15.40;85.60
3194;DHT22;1608;50.860;13.466;2022-07-29T01:06:20;15.40;85.70
3194;DHT22;1608;50.860;13.466;2022-07-29T01:08:48;15.40;85.80
3194;DHT22;1608;50.860;13.466;2022-07-29T01:11:16;15.30;85.80
3194;DHT22;1608;50.860;13.466;2022-07-29T01:13:45;15.30;86.20
3194;DHT22;1608;50.860;13.466;2022-07-29T01:16:21;15.30;86.40
3194;DHT22;1608;50.860;13.466;2022-07-29T01:18:49;15.30;86.50
3194;DHT22;1608;50.860;13.466;2022-07-29T01:21:48;15.20;86.20
3194;DHT22;1608;50.860;13.466;2022-07-29T01:24:36;15.20;86.80
3194;DHT22;1608;50.860;13.466;2022-07-29T01:27:21;15.30;87.70
3194;DHT22;1608;50.860;13.466;2022-07-29T01:29:56;15.30;87.10
3194;DHT22;1608;50.860;13.466;2022-07-29T01:32:26;15.30;87.20
3194;DHT22;1608;50.860;13.466;2022-07-29T01:34:58;15.30;87.30
3194;DHT22;1608;50.860;13.466;2022-07-29T01:37:29;15.30;87.90
3194;DHT22;1608;50.860;13.466;2022-07-29T01:40:00;15.20;88.00
3194;DHT22;1608;50.860;13.466;2022-07-29T01:42:34;15.30;88.20
3194;DHT22;1608;50.860;13.466;2022-07-29T01:45:08;15.20;88.30
3194;DHT22;1608;50.860;13.466;2022-07-29T01:47:40;15.20;88.60
3194;DHT22;1608;50.860;13.466;2022-07-29T01:50:11;15.20;88.80
3194;DHT22;1608;50.860;13.466;2022-07-29T01:52:43;15.10;88.90
3194;DHT22;1608;50.860;13.466;2022-07-29T01:55:13;15.10;89.10
3194;DHT22;1608;50.860;13.466;2022-07-29T01:57:44;15.00;89.50
3194;DHT22;1608;50.860;13.466;2022-07-29T02:00:15;15.00;90.00
3194;DHT22;1608;50.860;13.466;2022-07-29T02:02:44;15.00;90.10
3194;DHT22;1608;50.860;13.466;2022-07-29T02:05:14;15.00;90.10
3194;DHT22;1608;50.860;13.466;2022-07-29T02:07:42;15.10;90.00
3194;DHT22;1608;50.860;13.466;2022-07-29T02:10:10;15.10;90.00
3194;DHT22;1608;50.860;13.466;2022-07-29T02:12:39;15.10;90.00
3194;DHT22;1608;50.860;13.466;2022-07-29T02:15:08;15.10;90.10
3194;DHT22;1608;50.860;13.466;2022-07-29T02:17:40;15.20;90.20
3194;DHT22;1608;50.860;13.466;2022-07-29T02:20:09;15.10;90.40
3194;DHT22;1608;50.860;13.466;2022-07-29T02:22:38;15.10;90.40
3194;DHT22;1608;50.860;13.466;2022-07-29T02:25:07;15.10;90.60
3194;DHT22;1608;50.860;13.466;2022-07-29T02:27:35;15.10;90.70
3194;DHT22;1608;50.860;13.466;2022-07-29T02:30:04;15.10;90.80
3194;DHT22;1608;50.860;13.466;2022-07-29T02:32:34;15.10;90.70
3194;DHT22;1608;50.860;13.466;2022-07-29T02:35:03;15.20;90.80
3194;DHT22;1608;50.860;13.466;2022-07-29T02:37:31;14.80;90.70
3194;DHT22;1608;50.860;13.466;2022-07-29T02:39:59;15.10;91.00
3194;DHT22;1608;50.860;13.466;2022-07-29T02:42:27;15.20;91.10
3194;DHT22;1608;50.860;13.466;2022-07-29T02:44:54;15.20;91.10
3194;DHT22;1608;50.860;13.466;2022-07-29T02:47:24;15.20;91.20
3194;DHT22;1608;50.860;13.466;2022-07-29T02:49:57;15.20;91.20
3194;DHT22;1608;50.860;13.466;2022-07-29T02:52:32;15.30;91.30
3194;DHT22;1608;50.860;13.466;2022-07-29T02:55:09;15.30;91.30
3194;DHT22;1608;50.860;13.466;2022-07-29T02:57:42;15.30;91.30
3194;DHT22;1608;50.860;13.466;2022-07-29T03:00:10;15.30;91.30
3194;DHT22;1608;50.860;13.466;2022-07-29T03:02:40;15.30;91.40
3194;DHT22;1608;50.860;13.466;2022-07-29T03:05:09;15.30;91.50
3194;DHT22;1608;50.860;13.466;2022-07-29T03:07:38;15.20;91.50
3194;DHT22;1608;50.860;13.466;2022-07-29T03:10:07;15.20;91.80
3194;DHT22;1608;50.860;13.466;2022-07-29T03:12:36;15.20;92.00
3194;DHT22;1608;50.860;13.466;2022-07-29T03:15:03;15.20;92.10
3194;DHT22;1608;50.860;13.466;2022-07-29T03:17:31;15.30;92.20
3194;DHT22;1608;50.860;13.466;2022-07-29T03:19:58;15.30;92.20
3194;DHT22;1608;50.860;13.466;2022-07-29T03:22:26;15.40;92.20
3194;DHT22;1608;50.860;13.466;2022-07-29T03:24:54;15.40;92.20
3194;DHT22;1608;50.860;13.466;2022-07-29T03:27:21;15.40;92.30
3194;DHT22;1608;50.860;13.466;2022-07-29T03:29:48;15.40;92.30
3194;DHT22;1608;50.860;13.466;2022-07-29T03:32:15;15.40;92.30
3194;DHT22;1608;50.860;13.466;2022-07-29T03:34:42;15.40;92.40
3194;DHT22;1608;50.860;13.466;2022-07-29T03:37:08;15.40;92.40
3194;DHT22;1608;50.860;13.466;2022-07-29T03:39:38;15.40;92.50
3194;DHT22;1608;50.860;13.466;2022-07-29T03:42:10;15.40;92.60
3194;DHT22;1608;50.860;13.466;2022-07-29T03:44:39;15.40;92.80
3194;DHT22;1608;50.860;13.466;2022-07-29T03:47:09;15.40;92.90
3194;DHT22;1608;50.860;13.466;2022-07-29T03:49:39;15.40;92.90
3194;DHT22;1608;50.860;13.466;2022-07-29T03:52:07;15.40;93.00
3194;DHT22;1608;50.860;13.466;2022-07-29T03:54:34;15.40;93.10
3194;DHT22;1608;50.860;13.466;2022-07-29T03:57:01;15.50;93.20
3194;DHT22;1608;50.860;13.466;2022-07-29T03:59:31;15.50;93.10
3194;DHT22;1608;50.860;13.466;2022-07-29T04:02:00;15.50;93.20
3194;DHT22;1608;50.860;13.466;2022-07-29T04:04:27;15.50;93.30
3194;DHT22;1608;50.860;13.466;2022-07-29T04:06:54;15.60;93.40
3194;DHT22;1608;50.860;13.466;2022-07-29T04:09:21;15.60;93.50
3194;DHT22;1608;50.860;13.466;2022-07-29T04:11:48;15.70;93.60
3194;DHT22;1608;50.860;13.466;2022-07-29T04:14:14;15.70;93.60
3194;DHT22;1608;50.860;13.466;2022-07-29T04:16:42;15.80;93.50
3194;DHT22;1608;50.860;13.466;2022-07-29T04:19:09;16.00;93.60
3194;DHT22;1608;50.860;13.466;2022-07-29T04:21:37;16.00;93.60
3194;DHT22;1608;50.860;13.466;2022-07-29T04:24:05;16.10;93.60
3194;DHT22;1608;50.860;13.466;2022-07-29T04:26:32;16.20;93.60
3194;DHT22;1608;50.860;13.466;2022-07-29T04:28:59;16.30;93.50
3194;DHT22;1608;50.860;13.466;2022-07-29T04:31:25;16.50;93.00
3194;DHT22;1608;50.860;13.466;2022-07-29T04:33:54;16.50;93.30
3194;DHT22;1608;50.860;13.466;2022-07-29T04:36:21;16.60;93.50
3194;DHT22;1608;50.860;13.466;2022-07-29T04:38:47;16.60;93.50
3194;DHT22;1608;50.860;13.466;2022-07-29T04:41:14;16.70;93.40
3194;DHT22;1608;50.860;13.466;2022-07-29T04:43:41;16.80;93.50
3194;DHT22;1608;50.860;13.466;2022-07-29T04:46:08;16.80;93.30
3194;DHT22;1608;50.860;13.466;2022-07-29T04:48:34;17.00;93.20
3194;DHT22;1608;50.860;13.466;2022-07-29T04:51:03;17.20;93.10
3194;DHT22;1608;50.860;13.466;2022-07-29T04:53:30;17.40;92.80
3194;DHT22;1608;50.860;13.466;2022-07-29T04:55:56;17.70;92.50
3194;DHT22;1608;50.860;13.466;2022-07-29T04:58:23;17.90;92.20
3194;DHT22;1608;50.860;13.466;2022-07-29T05:00:50;18.30;92.00
3194;DHT22;1608;50.860;13.466;2022-07-29T05:03:17;18.70;91.50
3194;DHT22;1608;50.860;13.466;2022-07-29T05:05:44;19.10;90.90
3194;DHT22;1608;50.860;13.466;2022-07-29T05:08:12;19.30;90.50
3194;DHT22;1608;50.860;13.466;2022-07-29T05:10:39;19.60;90.30
3194;DHT22;1608;50.860;13.466;2022-07-29T05:13:06;19.90;90.00
3194;DHT22;1608;50.860;13.466;2022-07-29T05:15:34;20.40;89.20
3194;DHT22;1608;50.860;13.466;2022-07-29T05:18:01;21.20;87.50
3194;DHT22;1608;50.860;13.466;2022-07-29T05:20:28;22.00;84.60
3194;DHT22;1608;50.860;13.466;2022-07-29T05:22:55;23.00;81.30
3194;DHT22;1608;50.860;13.466;2022-07-29T05:25:23;23.20;79.20
3194;DHT22;1608;50.860;13.466;2022-07-29T05:27:50;22.90;79.00
3194;DHT22;1608;50.860;13.466;2022-07-29T05:30:17;22.50;79.70
3194;DHT22;1608;50.860;13.466;2022-07-29T05:32:44;22.00;80.80
3194;DHT22;1608;50.860;13.466;2022-07-29T05:35:11;21.70;82.20
3194;DHT22;1608;50.860;13.466;2022-07-29T05:37:38;21.40;84.10
3194;DHT22;1608;50.860;13.466;2022-07-29T05:40:06;21.20;85.50
3194;DHT22;1608;50.860;13.466;2022-07-29T05:42:35;21.00;86.60
3194;DHT22;1608;50.860;13.466;2022-07-29T05:45:03;20.90;88.20
3194;DHT22;1608;50.860;13.466;2022-07-29T05:47:30;20.90;88.80
3194;DHT22;1608;50.860;13.466;2022-07-29T05:49:57;20.80;89.30
3194;DHT22;1608;50.860;13.466;2022-07-29T05:52:24;20.90;90.00
3194;DHT22;1608;50.860;13.466;2022-07-29T05:54:50;20.90;90.40
3194;DHT22;1608;50.860;13.466;2022-07-29T05:57:18;20.80;91.20
3194;DHT22;1608;50.860;13.466;2022-07-29T05:59:47;20.80;91.50
3194;DHT22;1608;50.860;13.466;2022-07-29T06:02:13;20.80;91.70
3194;DHT22;1608;50.860;13.466;2022-07-29T06:04:40;20.80;92.10
3194;DHT22;1608;50.860;13.466;2022-07-29T06:07:07;20.80;91.90
3194;DHT22;1608;50.860;13.466;2022-07-29T06:09:34;20.90;91.90
3194;DHT22;1608;50.860;13.466;2022-07-29T06:12:01;21.00;92.00
3194;DHT22;1608;50.860;13.466;2022-07-29T06:14:28;21.10;91.30
3194;DHT22;1608;50.860;13.466;2022-07-29T06:16:56;21.30;91.30
3194;DHT22;1608;50.860;13.466;2022-07-29T06:19:23;21.40;91.10
3194;DHT22;1608;50.860;13.466;2022-07-29T06:21:50;21.60;89.50
3194;DHT22;1608;50.860;13.466;2022-07-29T06:24:16;21.70;90.20
3194;DHT22;1608;50.860;13.466;2022-07-29T06:26:43;21.80;90.70
3194;DHT22;1608;50.860;13.466;2022-07-29T06:29:10;21.90;90.50
3194;DHT22;1608;50.860;13.466;2022-07-29T06:31:38;22.00;90.20
3194;DHT22;1608;50.860;13.466;2022-07-29T06:34:06;22.10;89.90
3194;DHT22;1608;50.860;13.466;2022-07-29T06:36:35;22.30;88.40
3194;DHT22;1608;50.860;13.466;2022-07-29T06:39:04;22.40;86.30
3194;DHT22;1608;50.860;13.466;2022-07-29T06:41:31;22.60;85.00
3194;DHT22;1608;50.860;13.466;2022-07-29T06:43:58;22.70;85.00
3194;DHT22;1608;50.860;13.466;2022-07-29T06:46:25;22.70;85.30
3194;DHT22;1608;50.860;13.466;2022-07-29T06:48:53;22.80;83.10
3194;DHT22;1608;50.860;13.466;2022-07-29T06:51:21;22.80;82.40
3194;DHT22;1608;50.860;13.466;2022-07-29T06:53:49;22.80;82.50
3194;DHT22;1608;50.860;13.466;2022-07-29T06:56:15;22.80;81.50
3194;DHT22;1608;50.860;13.466;2022-07-29T06:58:42;22.90;80.40
3194;DHT22;1608;50.860;13.466;2022-07-29T07:01:09;23.00;80.70
3194;DHT22;1608;50.860;13.466;2022-07-29T07:03:36;23.00;80.30
3194;DHT22;1608;50.860;13.466;2022-07-29T07:06:02;23.10;79.70
3194;DHT22;1608;50.860;13.466;2022-07-29T07:08:31;23.30;79.50
3194;DHT22;1608;50.860;13.466;2022-07-29T07:10:57;23.60;79.00
3194;DHT22;1608;50.860;13.466;2022-07-29T07:13:25;23.80;76.80
3194;DHT22;1608;50.860;13.466;2022-07-29T07:15:53;24.00;76.00
3194;DHT22;1608;50.860;13.466;2022-07-29T07:18:20;24.30;76.30
3194;DHT22;1608;50.860;13.466;2022-07-29T07:20:47;24.40;74.30
3194;DHT22;1608;50.860;13.466;2022-07-29T07:23:14;24.70;73.80
3194;DHT22;1608;50.860;13.466;2022-07-29T07:25:42;25.00;72.60
3194;DHT22;1608;50.860;13.466;2022-07-29T07:28:09;25.00;71.00
3194;DHT22;1608;50.860;13.466;2022-07-29T07:30:36;25.20;71.40
3194;DHT22;1608;50.860;13.466;2022-07-29T07:33:02;25.30;70.80
3194;DHT22;1608;50.860;13.466;2022-07-29T07:35:30;25.10;69.50
3194;DHT22;1608;50.860;13.466;2022-07-29T07:37:57;25.10;69.40
3194;DHT22;1608;50.860;13.466;2022-07-29T07:40:24;25.00;69.80
3194;DHT22;1608;50.860;13.466;2022-07-29T07:42:52;25.20;71.30
3194;DHT22;1608;50.860;13.466;2022-07-29T07:45:19;25.40;70.70
3194;DHT22;1608;50.860;13.466;2022-07-29T07:47:46;25.50;70.40
3194;DHT22;1608;50.860;13.466;2022-07-29T07:50:13;25.50;69.60
3194;DHT22;1608;50.860;13.466;2022-07-29T07:52:47;25.80;68.90
3194;DHT22;1608;50.860;13.466;2022-07-29T07:55:15;25.90;67.80
3194;DHT22;1608;50.860;13.466;2022-07-29T07:57:41;26.00;67.00
3194;DHT22;1608;50.860;13.466;2022-07-29T08:00:11;25.90;66.00
3194;DHT22;1608;50.860;13.466;2022-07-29T08:02:38;26.10;64.80
3194;DHT22;1608;50.860;13.466;2022-07-29T08:05:06;26.00;65.30
3194;DHT22;1608;50.860;13.466;2022-07-29T08:07:34;25.90;65.30
3194;DHT22;1608;50.860;13.466;2022-07-29T08:10:01;25.80;65.30
3194;DHT22;1608;50.860;13.466;2022-07-29T08:12:28;25.90;65.90
3194;DHT22;1608;50.860;13.466;2022-07-29T08:14:55;26.20;66.00
3194;DHT22;1608;50.860;13.466;2022-07-29T08:17:23;26.20;64.60
3194;DHT22;1608;50.860;13.466;2022-07-29T08:19:50;26.50;63.80
3194;DHT22;1608;50.860;13.466;2022-07-29T08:22:17;26.80;63.90
3194;DHT22;1608;50.860;13.466;2022-07-29T08:24:44;26.90;63.80
3194;DHT22;1608;50.860;13.466;2022-07-29T08:27:17;27.00;62.80
3194;DHT22;1608;50.860;13.466;2022-07-29T08:29:44;27.20;62.80
3194;DHT22;1608;50.860;13.466;2022-07-29T08:32:11;27.30;61.10
3194;DHT22;1608;50.860;13.466;2022-07-29T08:34:39;27.00;59.70
3194;DHT22;1608;50.860;13.466;2022-07-29T08:37:06;27.10;59.20
3194;DHT22;1608;50.860;13.466;2022-07-29T08:39:33;27.40;59.10
3194;DHT22;1608;50.860;13.466;2022-07-29T08:41:59;27.40;58.70
3194;DHT22;1608;50.860;13.466;2022-07-29T08:44:26;27.80;58.80
3194;DHT22;1608;50.860;13.466;2022-07-29T08:46:53;28.10;57.10
3194;DHT22;1608;50.860;13.466;2022-07-29T08:49:20;28.20;56.30
3194;DHT22;1608;50.860;13.466;2022-07-29T08:51:48;27.80;56.50
3194;DHT22;1608;50.860;13.466;2022-07-29T08:54:17;27.80;57.10
3194;DHT22;1608;50.860;13.466;2022-07-29T08:56:45;28.10;57.20
3194;DHT22;1608;50.860;13.466;2022-07-29T08:59:14;28.10;56.40
3194;DHT22;1608;50.860;13.466;2022-07-29T09:01:43;28.00;56.60
3194;DHT22;1608;50.860;13.466;2022-07-29T09:04:11;28.00;56.50
3194;DHT22;1608;50.860;13.466;2022-07-29T09:06:43;28.00;55.80
3194;DHT22;1608;50.860;13.466;2022-07-29T09:09:13;27.70;56.30
3194;DHT22;1608;50.860;13.466;2022-07-29T09:11:40;27.50;56.60
3194;DHT22;1608;50.860;13.466;2022-07-29T09:14:08;27.50;56.40
3194;DHT22;1608;50.860;13.466;2022-07-29T09:16:54;27.40;55.50
3194;DHT22;1608;50.860;13.466;2022-07-29T09:19:27;27.40;56.00
3194;DHT22;1608;50.860;13.466;2022-07-29T09:21:54;27.40;54.60
3194;DHT22;1608;50.860;13.466;2022-07-29T09:24:27;27.40;54.80
3194;DHT22;1608;50.860;13.466;2022-07-29T09:26:54;27.90;55.10
3194;DHT22;1608;50.860;13.466;2022-07-29T09:29:22;28.30;53.60
3194;DHT22;1608;50.860;13.466;2022-07-29T09:31:51;28.50;53.20
3194;DHT22;1608;50.860;13.466;2022-07-29T09:34:23;28.70;52.50
3194;DHT22;1608;50.860;13.466;2022-07-29T09:36:51;28.80;52.40
3194;DHT22;1608;50.860;13.466;2022-07-29T09:39:29;29.30;52.80
3194;DHT22;1608;50.860;13.466;2022-07-29T09:41:58;29.40;51.70
3194;DHT22;1608;50.860;13.466;2022-07-29T09:44:25;29.40;52.60
3194;DHT22;1608;50.860;13.466;2022-07-29T09:46:54;29.60;52.20
3194;DHT22;1608;50.860;13.466;2022-07-29T09:49:21;29.80;50.70
3194;DHT22;1608;50.860;13.466;2022-07-29T09:51:48;29.70;50.80
3194;DHT22;1608;50.860;13.466;2022-07-29T09:54:26;29.60;50.30
3194;DHT22;1608;50.860;13.466;2022-07-29T09:56:54;29.30;50.70
3194;DHT22;1608;50.860;13.466;2022-07-29T09:59:21;29.20;51.00
3194;DHT22;1608;50.860;13.466;2022-07-29T10:01:51;28.80;51.30
3194;DHT22;1608;50.860;13.466;2022-07-29T10:04:19;28.60;52.20
3194;DHT22;1608;50.860;13.466;2022-07-29T10:06:56;28.80;52.10
3194;DHT22;1608;50.860;13.466;2022-07-29T10:09:23;29.00;52.20
3194;DHT22;1608;50.860;13.466;2022-07-29T10:12:05;28.90;52.00
3194;DHT22;1608;50.860;13.466;2022-07-29T10:14:32;28.80;51.40
3194;DHT22;1608;50.860;13.466;2022-07-29T10:17:00;28.70;52.40
3194;DHT22;1608;50.860;13.466;2022-07-29T10:19:28;28.90;52.90
3194;DHT22;1608;50.860;13.466;2022-07-29T10:21:56;28.90;52.60
3194;DHT22;1608;50.860;13.466;2022-07-29T10:24:25;28.90;52.60
3194;DHT22;1608;50.860;13.466;2022-07-29T10:26:52;28.80;53.20
3194;DHT22;1608;50.860;13.466;2022-07-29T10:29:21;28.80;53.00
3194;DHT22;1608;50.860;13.466;2022-07-29T10:31:56;28.80;53.00
3194;DHT22;1608;50.860;13.466;2022-07-29T10:34:33;28.80;53.10
3194;DHT22;1608;50.860;13.466;2022-07-29T10:37:09;29.00;52.40
3194;DHT22;1608;50.860;13.466;2022-07-29T10:39:49;28.80;52.10
3194;DHT22;1608;50.860;13.466;2022-07-29T10:42:21;28.60;53.60
3194;DHT22;1608;50.860;13.466;2022-07-29T10:44:52;28.40;53.60
3194;DHT22;1608;50.860;13.466;2022-07-29T10:47:20;28.40;54.10
3194;DHT22;1608;50.860;13.466;2022-07-29T10:49:58;28.30;54.20
3194;DHT22;1608;50.860;13.466;2022-07-29T10:52:30;28.50;54.20
3194;DHT22;1608;50.860;13.466;2022-07-29T10:55:31;28.10;52.80
3194;DHT22;1608;50.860;13.466;2022-07-29T10:58:17;27.90;54.00
3194;DHT22;1608;50.860;13.466;2022-07-29T11:00:46;27.80;53.30
3194;DHT22;1608;50.860;13.466;2022-07-29T11:03:44;28.00;54.50
3194;DHT22;1608;50.860;13.466;2022-07-29T11:06:12;28.20;54.40
3194;DHT22;1608;50.860;13.466;2022-07-29T11:08:39;28.30;53.90
3194;DHT22;1608;50.860;13.466;2022-07-29T11:11:36;28.30;53.70
3194;DHT22;1608;50.860;13.466;2022-07-29T11:14:06;28.20;53.70
3194;DHT22;1608;50.860;13.466;2022-07-29T11:17:03;28.20;54.60
3194;DHT22;1608;50.860;13.466;2022-07-29T11:19:30;28.40;53.80
3194;DHT22;1608;50.860;13.466;2022-07-29T11:21:57;28.40;52.80
3194;DHT22;1608;50.860;13.466;2022-07-29T11:24:26;28.70;53.60
3194;DHT22;1608;50.860;13.466;2022-07-29T11:27:14;29.00;52.50
3194;DHT22;1608;50.860;13.466;2022-07-29T11:29:50;28.90;52.50
3194;DHT22;1608;50.860;13.466;2022-07-29T11:32:20;29.10;52.50
3194;DHT22;1608;50.860;13.466;2022-07-29T11:34:48;29.10;52.80
3194;DHT22;1608;50.860;13.466;2022-07-29T11:37:18;29.40;52.00
3194;DHT22;1608;50.860;13.466;2022-07-29T11:39:46;29.60;50.70
3194;DHT22;1608;50.860;13.466;2022-07-29T11:42:38;29.60;50.00
3194;DHT22;1608;50.860;13.466;2022-07-29T11:45:07;29.40;51.50
3194;DHT22;1608;50.860;13.466;2022-07-29T11:47:37;29.30;51.20
3194;DHT22;1608;50.860;13.466;2022-07-29T11:50:07;29.20;51.20
3194;DHT22;1608;50.860;13.466;2022-07-29T11:52:36;29.10;51.00
3194;DHT22;1608;50.860;13.466;2022-07-29T11:55:09;29.10;51.90
3194;DHT22;1608;50.860;13.466;2022-07-29T11:57:37;29.00;51.20
3194;DHT22;1608;50.860;13.466;2022-07-29T12:00:06;29.00;51.60
3194;DHT22;1608;50.860;13.466;2022-07-29T12:02:43;29.30;50.70
3194;DHT22;1608;50.860;13.466;2022-07-29T12:05:10;29.20;50.30
3194;DHT22;1608;50.860;13.466;2022-07-29T12:07:38;29.20;50.80
3194;DHT22;1608;50.860;13.466;2022-07-29T12:10:06;28.90;51.30
3194;DHT22;1608;50.860;13.466;2022-07-29T12:12:33;28.80;51.10
3194;DHT22;1608;50.860;13.466;2022-07-29T12:15:12;28.90;52.30
3194;DHT22;1608;50.860;13.466;2022-07-29T12:17:38;29.00;52.60
3194;DHT22;1608;50.860;13.466;2022-07-29T12:20:07;29.20;51.20
3194;DHT22;1608;50.860;13.466;2022-07-29T12:22:36;29.00;50.50
3194;DHT22;1608;50.860;13.466;2022-07-29T12:25:07;29.20;51.70
3194;DHT22;1608;50.860;13.466;2022-07-29T12:27:35;29.30;51.90
3194;DHT22;1608;50.860;13.466;2022-07-29T12:30:04;29.20;52.30
3194;DHT22;1608;50.860;13.466;2022-07-29T12:32:32;29.00;51.60
3194;DHT22;1608;50.860;13.466;2022-07-29T12:35:02;29.10;52.50
3194;DHT22;1608;50.860;13.466;2022-07-29T12:37:32;29.10;52.30
3194;DHT22;1608;50.860;13.466;2022-07-29T12:39:59;29.30;52.50
3194;DHT22;1608;50.860;13.466;2022-07-29T12:42:26;29.30;51.80
3194;DHT22;1608;50.860;13.466;2022-07-29T12:44:53;29.00;51.50
3194;DHT22;1608;50.860;13.466;2022-07-29T12:47:20;29.40;51.70
3194;DHT22;1608;50.860;13.466;2022-07-29T12:49:48;29.50;51.70
3194;DHT22;1608;50.860;13.466;2022-07-29T12:52:28;29.70;51.70
3194;DHT22;1608;50.860;13.466;2022-07-29T12:54:56;29.80;51.70
3194;DHT22;1608;50.860;13.466;2022-07-29T12:57:24;29.90;51.70
3194;DHT22;1608;50.860;13.466;2022-07-29T13:00:05;29.90;51.80
3194;DHT22;1608;50.860;13.466;2022-07-29T13:02:33;29.90;51.70
3194;DHT22;1608;50.860;13.466;2022-07-29T13:05:00;30.00;50.50
3194;DHT22;1608;50.860;13.466;2022-07-29T13:07:29;30.00;49.70
3194;DHT22;1608;50.860;13.466;2022-07-29T13:10:11;29.80;50.10
3194;DHT22;1608;50.860;13.466;2022-07-29T13:12:38;29.60;49.70
3194;DHT22;1608;50.860;13.466;2022-07-29T13:15:13;29.50;49.50
3194;DHT22;1608;50.860;13.466;2022-07-29T13:17:40;29.70;51.00
3194;DHT22;1608;50.860;13.466;2022-07-29T13:20:09;29.60;50.70
3194;DHT22;1608;50.860;13.466;2022-07-29T13:22:38;29.70;50.20
3194;DHT22;1608;50.860;13.466;2022-07-29T13:25:08;29.70;51.20
3194;DHT22;1608;50.860;13.466;2022-07-29T13:27:36;29.70;51.60
3194;DHT22;1608;50.860;13.466;2022-07-29T13:30:05;29.80;51.10
3194;DHT22;1608;50.860;13.466;2022-07-29T13:32:32;29.90;50.10
3194;DHT22;1608;50.860;13.466;2022-07-29T13:35:01;29.90;50.50
3194;DHT22;1608;50.860;13.466;2022-07-29T13:37:28;29.60;50.60
3194;DHT22;1608;50.860;13.466;2022-07-29T13:39:55;29.80;50.90
3194;DHT22;1608;50.860;13.466;2022-07-29T13:42:24;29.70;50.60
3194;DHT22;1608;50.860;13.466;2022-07-29T13:44:51;29.70;51.10
3194;DHT22;1608;50.860;13.466;2022-07-29T13:47:18;29.70;51.10
3194;DHT22;1608;50.860;13.466;2022-07-29T13:49:45;29.90;51.80
3194;DHT22;1608;50.860;13.466;2022-07-29T13:52:12;29.90;50.20
3194;DHT22;1608;50.860;13.466;2022-07-29T13:54:38;29.90;51.00
3194;DHT22;1608;50.860;13.466;2022-07-29T13:57:05;29.90;51.30
3194;DHT22;1608;50.860;13.466;2022-07-29T13:59:34;29.80;51.00
3194;DHT22;1608;50.860;13.466;2022-07-29T14:02:00;29.50;50.10
3194;DHT22;1608;50.860;13.466;2022-07-29T14:04:27;29.50;50.80
3194;DHT22;1608;50.860;13.466;2022-07-29T14:06:54;29.40;51.40
3194;DHT22;1608;50.860;13.466;2022-07-29T14:09:21;29.30;50.50
3194;DHT22;1608;50.860;13.466;2022-07-29T14:11:47;29.20;51.60
3194;DHT22;1608;50.860;13.466;2022-07-29T14:14:15;29.20;52.10
3194;DHT22;1608;50.860;13.466;2022-07-29T14:16:43;29.10;51.90
3194;DHT22;1608;50.860;13.466;2022-07-29T14:19:10;29.00;52.10
3194;DHT22;1608;50.860;13.466;2022-07-29T14:21:37;28.80;51.80
3194;DHT22;1608;50.860;13.466;2022-07-29T14:24:05;28.80;52.10
3194;DHT22;1608;50.860;13.466;2022-07-29T14:26:32;28.80;52.50
3194;DHT22;1608;50.860;13.466;2022-07-29T14:28:58;28.90;53.00
3194;DHT22;1608;50.860;13.466;2022-07-29T14:31:25;29.10;51.40
3194;DHT22;1608;50.860;13.466;2022-07-29T14:33:53;29.10;51.60
3194;DHT22;1608;50.860;13.466;2022-07-29T14:36:20;29.30;52.00
3194;DHT22;1608;50.860;13.466;2022-07-29T14:38:47;29.70;51.80
3194;DHT22;1608;50.860;13.466;2022-07-29T14:41:13;29.60;51.60
3194;DHT22;1608;50.860;13.466;2022-07-29T14:43:40;29.50;51.50
3194;DHT22;1608;50.860;13.466;2022-07-29T14:46:08;29.40;52.10
3194;DHT22;1608;50.860;13.466;2022-07-29T14:48:35;29.30;52.20
3194;DHT22;1608;50.860;13.466;2022-07-29T14:51:03;29.40;52.10
3194;DHT22;1608;50.860;13.466;2022-07-29T14:53:30;29.50;51.80
3194;DHT22;1608;50.860;13.466;2022-07-29T14:55:58;29.40;51.70
3194;DHT22;1608;50.860;13.466;2022-07-29T14:58:24;29.20;51.70
3194;DHT22;1608;50.860;13.466;2022-07-29T15:00:51;29.10;52.20
3194;DHT22;1608;50.860;13.466;2022-07-29T15:03:20;29.10;52.20
3194;DHT22;1608;50.860;13.466;2022-07-29T15:05:46;29.10;52.60
3194;DHT22;1608;50.860;13.466;2022-07-29T15:08:14;29.10;52.40
3194;DHT22;1608;50.860;13.466;2022-07-29T15:10:41;29.10;51.70
3194;DHT22;1608;50.860;13.466;2022-07-29T15:13:08;29.00;51.20
3194;DHT22;1608;50.860;13.466;2022-07-29T15:15:35;29.00;51.00
3194;DHT22;1608;50.860;13.466;2022-07-29T15:18:01;28.90;50.80
3194;DHT22;1608;50.860;13.466;2022-07-29T15:20:28;28.80;51.40
3194;DHT22;1608;50.860;13.466;2022-07-29T15:22:55;28.70;51.90
3194;DHT22;1608;50.860;13.466;2022-07-29T15:25:24;28.70;52.30
3194;DHT22;1608;50.860;13.466;2022-07-29T15:27:51;28.70;53.00
3194;DHT22;1608;50.860;13.466;2022-07-29T15:30:18;28.80;53.40
3194;DHT22;1608;50.860;13.466;2022-07-29T15:32:45;28.80;52.40
3194;DHT22;1608;50.860;13.466;2022-07-29T15:35:12;28.80;52.10
3194;DHT22;1608;50.860;13.466;2022-07-29T15:37:39;28.70;51.20
3194;DHT22;1608;50.860;13.466;2022-07-29T15:40:06;28.70;52.40
3194;DHT22;1608;50.860;13.466;2022-07-29T15:42:36;28.70;51.30
3194;DHT22;1608;50.860;13.466;2022-07-29T15:45:03;28.70;51.80
3194;DHT22;1608;50.860;13.466;2022-07-29T15:47:30;28.70;52.00
3194;DHT22;1608;50.860;13.466;2022-07-29T15:49:57;28.60;52.10
3194;DHT22;1608;50.860;13.466;2022-07-29T15:52:23;28.60;51.20
3194;DHT22;1608;50.860;13.466;2022-07-29T15:54:50;28.60;52.00
3194;DHT22;1608;50.860;13.466;2022-07-29T15:57:17;28.70;52.10